createdAt,value
2018-10-16T00:01:51.652Z,16.13
2018-10-16T00:05:16.952Z,16.00
2018-10-16T00:08:41.332Z,16.11
2018-10-16T00:12:07.801Z,15.97
2018-10-16T00:15:32.230Z,16.03
2018-10-16T00:18:56.634Z,16.13
2018-10-16T00:22:21.032Z,16.09
2018-10-16T00:25:45.451Z,16.22
2018-10-16T00:29:09.856Z,16.33
2018-10-16T00:32:34.411Z,16.28
2018-10-16T00:35:58.695Z,16.27
2018-10-16T00:39:23.113Z,16.29
2018-10-16T00:42:47.510Z,16.21
2018-10-16T00:46:11.981Z,16.21
2018-10-16T00:49:36.403Z,16.16
2018-10-16T00:53:00.804Z,16.06
2018-10-16T00:56:25.217Z,16.23
2018-10-16T00:59:50.280Z,16.08
2018-10-16T01:03:14.670Z,16.01
2018-10-16T01:06:45.777Z,16.02
2018-10-16T01:10:11.210Z,16.16
2018-10-16T01:13:35.619Z,16.18
2018-10-16T01:17:00.036Z,16.22
2018-10-16T01:20:24.464Z,16.40
2018-10-16T01:23:48.890Z,16.52
2018-10-16T01:27:13.305Z,16.73
2018-10-16T01:30:37.723Z,16.73
2018-10-16T01:34:02.168Z,16.71
2018-10-16T01:37:26.571Z,16.72
2018-10-16T01:40:50.979Z,16.90
2018-10-16T01:44:15.439Z,17.15
2018-10-16T01:47:39.821Z,17.28
2018-10-16T01:51:04.250Z,17.01
2018-10-16T01:54:28.664Z,16.89
2018-10-16T01:57:53.064Z,16.97
2018-10-16T02:01:17.441Z,17.12
2018-10-16T02:04:41.915Z,16.73
2018-10-16T02:08:07.492Z,16.69
2018-10-16T02:11:31.896Z,16.62
2018-10-16T02:14:56.434Z,16.60
2018-10-16T02:18:20.737Z,16.62
2018-10-16T02:21:45.172Z,16.45
2018-10-16T02:25:12.242Z,16.22
2018-10-16T02:28:36.648Z,16.19
2018-10-16T02:32:01.077Z,16.01
2018-10-16T02:35:25.487Z,16.06
2018-10-16T02:38:49.916Z,16.06
2018-10-16T02:42:14.375Z,16.14
2018-10-16T02:45:38.794Z,16.06
2018-10-16T02:49:03.160Z,16.32
2018-10-16T02:52:27.569Z,16.42
2018-10-16T02:55:51.999Z,16.54
2018-10-16T02:59:16.421Z,16.58
2018-10-16T03:02:41.085Z,16.63
2018-10-16T03:06:06.030Z,16.62
2018-10-16T03:09:30.431Z,16.71
2018-10-16T03:12:54.959Z,16.60
2018-10-16T03:16:19.336Z,16.80
2018-10-16T03:19:43.700Z,16.77
2018-10-16T03:23:08.106Z,16.75
2018-10-16T03:26:32.523Z,16.69
2018-10-16T03:29:56.913Z,16.61
2018-10-16T03:33:21.308Z,16.75
2018-10-16T03:36:45.720Z,16.80
2018-10-16T03:40:11.050Z,17.01
2018-10-16T03:43:38.277Z,17.08
2018-10-16T03:47:02.647Z,17.03
2018-10-16T03:50:27.083Z,17.02
2018-10-16T03:53:52.223Z,17.15
2018-10-16T03:57:16.750Z,16.98
2018-10-16T04:00:41.154Z,16.97
2018-10-16T04:04:05.862Z,17.00
2018-10-16T04:07:30.356Z,16.98
2018-10-16T04:10:54.722Z,16.86
2018-10-16T04:14:19.123Z,16.69
2018-10-16T04:17:43.562Z,16.81
2018-10-16T04:21:08.185Z,16.69
2018-10-16T04:24:32.615Z,16.49
2018-10-16T04:27:57.123Z,16.51
2018-10-16T04:31:21.495Z,16.51
2018-10-16T04:34:46.109Z,16.36
2018-10-16T04:38:10.602Z,16.39
2018-10-16T04:41:35.253Z,16.07
2018-10-16T04:44:59.668Z,15.87
2018-10-16T04:48:24.443Z,15.91
2018-10-16T04:51:48.840Z,15.85
2018-10-16T04:55:13.390Z,15.72
2018-10-16T04:58:37.803Z,15.67
2018-10-16T05:02:02.245Z,15.93
2018-10-16T05:05:26.717Z,15.76
2018-10-16T05:08:51.143Z,15.58
2018-10-16T05:12:15.574Z,15.52
2018-10-16T05:15:39.962Z,15.54
2018-10-16T05:19:04.422Z,15.43
2018-10-16T05:22:28.781Z,15.48
2018-10-16T05:25:53.217Z,15.47
2018-10-16T05:29:17.619Z,15.51
2018-10-16T05:32:42.046Z,15.48
2018-10-16T05:36:07.023Z,15.44
2018-10-16T05:39:31.432Z,15.29
2018-10-16T05:42:55.867Z,15.19
2018-10-16T05:46:20.261Z,15.12
2018-10-16T05:49:44.675Z,15.12
2018-10-16T05:53:09.100Z,15.08
2018-10-16T05:56:33.498Z,15.15
2018-10-16T06:00:40.099Z,15.11
2018-10-16T06:04:04.790Z,15.01
2018-10-16T06:07:29.238Z,14.91
2018-10-16T06:10:53.754Z,14.80
2018-10-16T06:14:18.070Z,14.77
2018-10-16T06:17:42.455Z,14.79
2018-10-16T06:21:06.891Z,14.70
2018-10-16T06:24:31.411Z,14.72
2018-10-16T06:27:55.753Z,14.85
2018-10-16T06:31:20.160Z,14.76
2018-10-16T06:34:44.603Z,14.79
2018-10-16T06:38:09.021Z,14.78
2018-10-16T06:41:33.449Z,14.79
2018-10-16T06:44:57.869Z,14.79
2018-10-16T06:48:22.598Z,14.80
2018-10-16T06:51:46.765Z,14.74
2018-10-16T06:55:11.263Z,14.86
2018-10-16T06:58:35.635Z,14.80
2018-10-16T07:02:00.062Z,14.92
2018-10-16T07:05:24.816Z,15.06
2018-10-16T07:08:49.212Z,15.15
2018-10-16T07:12:13.636Z,15.38
2018-10-16T07:15:38.079Z,15.70
2018-10-16T07:19:02.538Z,16.15
2018-10-16T07:22:26.953Z,16.65
2018-10-16T07:25:51.396Z,16.89
2018-10-16T07:29:15.815Z,17.19
2018-10-16T07:32:40.208Z,17.48
2018-10-16T07:36:04.718Z,17.71
2018-10-16T07:39:29.131Z,17.99
2018-10-16T07:42:53.587Z,18.06
2018-10-16T07:46:18.053Z,18.28
2018-10-16T07:49:42.511Z,18.51
2018-10-16T07:53:07.333Z,18.61
2018-10-16T07:56:31.837Z,18.70
2018-10-16T07:59:56.262Z,18.99
2018-10-16T08:03:20.696Z,19.26
2018-10-16T08:06:45.160Z,19.25
2018-10-16T08:10:11.572Z,19.03
2018-10-16T08:13:35.991Z,19.21
2018-10-16T08:17:00.460Z,19.29
2018-10-16T08:20:24.813Z,19.32
2018-10-16T08:23:49.248Z,19.60
2018-10-16T08:27:13.702Z,19.75
2018-10-16T08:30:38.221Z,19.81
2018-10-16T08:34:02.706Z,19.87
2018-10-16T08:38:48.501Z,19.97
2018-10-16T08:43:26.453Z,20.20
2018-10-16T08:47:07.764Z,20.61
2018-10-16T08:50:49.927Z,20.61
2018-10-16T08:54:14.392Z,20.65
2018-10-16T08:57:38.811Z,20.74
2018-10-16T09:01:03.316Z,21.14
2018-10-16T09:04:27.742Z,21.02
2018-10-16T09:07:52.177Z,21.54
2018-10-16T09:11:16.839Z,21.44
2018-10-16T09:14:41.339Z,22.22
2018-10-16T09:18:05.806Z,22.90
2018-10-16T09:21:30.278Z,23.54
2018-10-16T09:24:55.071Z,24.20
2018-10-16T09:28:19.719Z,26.50
2018-10-16T09:31:45.261Z,28.49
2018-10-16T09:35:11.816Z,29.80
2018-10-16T09:38:36.962Z,29.84
2018-10-16T09:42:01.633Z,31.68
2018-10-16T09:45:26.321Z,33.63
2018-10-16T09:48:50.914Z,34.33
2018-10-16T09:52:15.505Z,34.00
2018-10-16T09:55:39.897Z,35.73
2018-10-16T09:59:04.498Z,35.10
2018-10-16T10:02:29.097Z,35.12
2018-10-16T10:05:53.576Z,36.16
2018-10-16T10:09:22.487Z,34.97
2018-10-16T10:12:46.925Z,34.21
2018-10-16T10:16:11.354Z,33.56
2018-10-16T10:19:35.862Z,33.41
2018-10-16T10:23:00.344Z,31.36
2018-10-16T10:26:24.811Z,30.51
2018-10-16T10:29:49.274Z,29.23
2018-10-16T10:33:13.929Z,28.86
2018-10-16T10:36:38.354Z,31.38
2018-10-16T10:40:02.820Z,31.45
2018-10-16T10:43:27.260Z,30.73
2018-10-16T10:46:51.670Z,29.66
2018-10-16T10:50:16.255Z,29.21
2018-10-16T10:53:40.678Z,28.93
2018-10-16T10:57:05.670Z,27.97
2018-10-16T11:00:29.937Z,27.83
2018-10-16T11:03:54.361Z,28.03
2018-10-16T11:07:18.849Z,29.38
2018-10-16T11:10:43.265Z,31.65
2018-10-16T11:14:07.935Z,33.05
2018-10-16T11:17:32.396Z,34.98
2018-10-16T11:20:56.864Z,34.44
2018-10-16T11:24:21.353Z,35.36
2018-10-16T11:27:45.861Z,34.68
2018-10-16T11:31:10.269Z,34.68
2018-10-16T11:34:34.745Z,34.62
2018-10-16T11:37:59.197Z,36.40
2018-10-16T11:41:23.668Z,35.67
2018-10-16T11:44:48.104Z,36.64
2018-10-16T11:48:12.600Z,37.72
2018-10-16T11:51:37.190Z,36.56
2018-10-16T11:55:01.640Z,36.38
2018-10-16T11:58:26.076Z,37.91
2018-10-16T12:01:50.547Z,39.30
2018-10-16T12:05:15.047Z,38.89
2018-10-16T12:08:39.498Z,40.35
2018-10-16T12:12:04.028Z,40.16
2018-10-16T12:15:28.499Z,41.67
2018-10-16T12:18:58.351Z,41.46
2018-10-16T12:22:22.740Z,39.96
2018-10-16T12:25:47.319Z,40.95
2018-10-16T12:29:11.807Z,39.73
2018-10-16T12:32:36.710Z,39.18
2018-10-16T12:36:01.238Z,41.70
2018-10-16T12:39:25.728Z,42.57
2018-10-16T12:42:50.449Z,41.15
2018-10-16T12:46:14.842Z,37.02
2018-10-16T12:49:39.230Z,37.12
2018-10-16T12:53:03.797Z,36.60
2018-10-16T12:56:28.321Z,37.07
2018-10-16T12:59:52.811Z,39.52
2018-10-16T13:03:17.306Z,40.82
2018-10-16T13:06:41.745Z,43.63
2018-10-16T13:10:10.860Z,42.53
2018-10-16T13:13:35.276Z,41.71
2018-10-16T13:16:59.962Z,43.52
2018-10-16T13:20:24.301Z,41.26
2018-10-16T13:23:48.752Z,37.85
2018-10-16T13:27:13.309Z,36.91
2018-10-16T13:30:38.095Z,36.72
2018-10-16T13:34:04.477Z,38.44
2018-10-16T13:37:30.504Z,40.51
2018-10-16T13:40:55.050Z,41.84
2018-10-16T13:44:19.577Z,41.39
2018-10-16T13:47:44.719Z,41.29
2018-10-16T13:51:12.696Z,42.18
2018-10-16T13:54:37.134Z,43.28
2018-10-16T13:58:01.780Z,45.61
2018-10-16T14:01:26.469Z,45.35
2018-10-16T14:04:51.189Z,46.30
2018-10-16T14:08:15.559Z,46.51
2018-10-16T14:11:39.981Z,45.50
2018-10-16T14:15:05.749Z,45.67
2018-10-16T14:18:30.348Z,44.28
2018-10-16T14:21:54.774Z,39.97
2018-10-16T14:25:19.229Z,37.76
2018-10-16T14:28:43.663Z,36.93
2018-10-16T14:32:08.184Z,34.89
2018-10-16T14:35:32.593Z,35.26
2018-10-16T14:38:57.322Z,33.86
2018-10-16T14:42:21.728Z,34.39
2018-10-16T14:45:49.517Z,34.63
2018-10-16T14:49:13.965Z,35.38
2018-10-16T14:52:38.421Z,35.26
2018-10-16T14:56:02.920Z,35.45
2018-10-16T14:59:27.335Z,34.92
2018-10-16T15:02:51.762Z,34.91
2018-10-16T15:06:16.211Z,34.10
2018-10-16T15:09:40.693Z,32.98
2018-10-16T15:13:05.336Z,32.17
2018-10-16T15:16:30.025Z,31.29
2018-10-16T15:19:54.546Z,30.55
2018-10-16T15:23:18.922Z,30.00
2018-10-16T15:26:43.335Z,29.34
2018-10-16T15:30:09.432Z,29.04
2018-10-16T15:33:33.905Z,28.72
2018-10-16T15:36:58.416Z,27.98
2018-10-16T15:40:22.849Z,27.83
2018-10-16T15:43:47.288Z,27.59
2018-10-16T15:47:11.701Z,27.27
2018-10-16T15:50:36.153Z,26.54
2018-10-16T15:54:00.728Z,26.09
2018-10-16T15:57:25.106Z,25.65
2018-10-16T16:00:49.527Z,25.27
2018-10-16T16:04:15.262Z,25.13
2018-10-16T16:07:39.693Z,24.87
2018-10-16T16:11:04.114Z,24.42
2018-10-16T16:14:28.595Z,24.55
2018-10-16T16:17:53.202Z,24.32
2018-10-16T16:21:17.568Z,24.12
2018-10-16T16:24:42.000Z,24.00
2018-10-16T16:28:06.517Z,23.82
2018-10-16T16:31:30.968Z,23.95
2018-10-16T16:34:55.433Z,23.36
2018-10-16T16:38:19.932Z,23.47
2018-10-16T16:41:45.666Z,23.50
2018-10-16T16:45:14.436Z,23.17
2018-10-16T16:48:39.302Z,23.01
2018-10-16T16:52:03.793Z,23.02
2018-10-16T16:55:28.159Z,22.87
2018-10-16T16:58:52.738Z,22.58
2018-10-16T17:02:17.140Z,22.41
2018-10-16T17:05:41.657Z,22.41
2018-10-16T17:09:10.283Z,22.52
2018-10-16T17:12:34.849Z,22.27
2018-10-16T17:15:59.442Z,22.11
2018-10-16T17:19:24.011Z,22.00
2018-10-16T17:22:48.493Z,21.70
2018-10-16T17:26:13.447Z,22.21
2018-10-16T17:29:37.602Z,21.77
2018-10-16T17:33:02.080Z,21.55
2018-10-16T17:36:26.474Z,21.97
2018-10-16T17:39:50.934Z,22.10
2018-10-16T17:43:15.337Z,22.03
2018-10-16T17:46:39.750Z,22.07
2018-10-16T17:50:04.424Z,21.97
2018-10-16T17:53:28.881Z,21.85
2018-10-16T17:56:53.368Z,21.61
2018-10-16T18:00:19.168Z,21.55
2018-10-16T18:03:43.671Z,21.48
2018-10-16T18:07:08.174Z,21.41
2018-10-16T18:10:32.657Z,21.41
2018-10-16T18:13:57.124Z,21.57
2018-10-16T18:17:21.520Z,21.25
2018-10-16T18:20:45.969Z,21.19
2018-10-16T18:24:10.542Z,20.94
2018-10-16T18:27:35.017Z,20.70
2018-10-16T18:30:59.572Z,20.73
2018-10-16T18:34:24.025Z,20.48
2018-10-16T18:37:48.571Z,20.86
2018-10-16T18:41:13.087Z,20.77
2018-10-16T18:44:38.001Z,20.64
2018-10-16T18:48:02.459Z,20.52
2018-10-16T18:51:27.681Z,20.47
2018-10-16T18:54:53.540Z,20.55
2018-10-16T18:58:19.122Z,20.29
2018-10-16T19:01:43.565Z,20.44
2018-10-16T19:05:08.915Z,20.24
2018-10-16T19:08:34.168Z,20.18
2018-10-16T19:11:58.851Z,19.93
2018-10-16T19:15:24.422Z,20.08
2018-10-16T19:18:48.881Z,20.17
2018-10-16T19:22:14.355Z,20.09
2018-10-16T19:25:38.908Z,20.04
2018-10-16T19:29:03.951Z,20.20
2018-10-16T19:32:29.159Z,20.17
2018-10-16T19:35:54.004Z,20.13
2018-10-16T19:39:18.874Z,19.87
2018-10-16T19:42:43.999Z,19.81
2018-10-16T19:46:08.602Z,19.63
2018-10-16T19:49:33.837Z,19.77
2018-10-16T19:52:58.946Z,19.52
2018-10-16T19:56:23.422Z,19.57
2018-10-16T19:59:49.066Z,19.99
2018-10-16T20:03:13.559Z,19.61
2018-10-16T20:06:38.024Z,19.27
2018-10-16T20:10:02.982Z,19.29
2018-10-16T20:13:28.180Z,19.25
2018-10-16T20:16:54.635Z,19.13
2018-10-16T20:20:19.674Z,18.97
2018-10-16T20:23:44.063Z,18.85
2018-10-16T20:27:08.529Z,18.87
2018-10-16T20:30:32.968Z,18.90
2018-10-16T20:33:57.463Z,18.71
2018-10-16T20:37:21.977Z,18.49
2018-10-16T20:40:46.438Z,18.81
2018-10-16T20:44:10.903Z,18.99
2018-10-16T20:47:35.424Z,19.01
2018-10-16T20:51:00.060Z,18.84
2018-10-16T20:54:24.453Z,18.75
2018-10-16T20:57:48.887Z,18.75
2018-10-16T21:01:14.547Z,18.62
2018-10-16T21:04:39.095Z,18.47
2018-10-16T21:08:03.477Z,18.24
2018-10-16T21:11:27.934Z,18.32
2018-10-16T21:14:52.354Z,18.30
2018-10-16T21:18:23.467Z,18.51
2018-10-16T21:21:47.899Z,18.33
2018-10-16T21:25:12.518Z,18.47
2018-10-16T21:28:37.073Z,18.59
2018-10-16T21:32:01.491Z,18.68
2018-10-16T21:35:25.932Z,18.74
2018-10-16T21:38:50.419Z,18.82
2018-10-16T21:42:14.844Z,18.73
2018-10-16T21:45:39.291Z,18.44
2018-10-16T21:49:03.725Z,18.45
2018-10-16T21:52:28.146Z,18.56
2018-10-16T21:55:52.561Z,18.58
2018-10-16T21:59:17.472Z,19.00
2018-10-16T22:02:47.087Z,19.21
2018-10-16T22:06:12.219Z,19.30
2018-10-16T22:09:36.866Z,19.58
2018-10-16T22:13:01.345Z,19.50
2018-10-16T22:16:25.754Z,19.69
2018-10-16T22:19:50.184Z,19.96
2018-10-16T22:23:14.666Z,20.09
2018-10-16T22:26:39.024Z,20.01
2018-10-16T22:30:03.596Z,19.82
2018-10-16T22:33:27.993Z,19.48
2018-10-16T22:36:52.392Z,19.43
2018-10-16T22:40:16.820Z,19.38
2018-10-16T22:43:41.213Z,19.11
2018-10-16T22:47:05.702Z,19.24
2018-10-16T22:50:30.302Z,19.26
2018-10-16T22:53:54.723Z,19.42
2018-10-16T22:57:19.175Z,19.48
2018-10-16T23:00:43.591Z,19.64
2018-10-16T23:04:08.891Z,19.81
2018-10-16T23:07:33.325Z,20.01
2018-10-16T23:10:57.797Z,19.77
2018-10-16T23:14:22.166Z,19.47
2018-10-16T23:17:46.596Z,19.54
2018-10-16T23:21:10.986Z,19.42
2018-10-16T23:24:35.458Z,19.32
2018-10-16T23:27:59.876Z,19.17
2018-10-16T23:31:24.315Z,19.05
2018-10-16T23:34:48.707Z,18.85
2018-10-16T23:38:13.120Z,19.10
2018-10-16T23:41:37.655Z,19.24
2018-10-16T23:45:02.050Z,19.54
2018-10-16T23:48:26.424Z,19.48
2018-10-16T23:51:50.871Z,19.59
2018-10-16T23:55:15.387Z,19.75
2018-10-16T23:58:39.790Z,19.90
